createdAt,value
2018-12-16T00:00:57.390Z,7.54
2018-12-16T00:03:26.688Z,7.64
2018-12-16T00:05:55.672Z,7.64
2018-12-16T00:08:24.578Z,7.78
2018-12-16T00:10:53.591Z,7.89
2018-12-16T00:13:22.568Z,7.87
2018-12-16T00:15:51.444Z,7.87
2018-12-16T00:18:20.357Z,8.08
2018-12-16T00:20:49.242Z,8.08
2018-12-16T00:23:18.156Z,8.05
2018-12-16T00:25:47.025Z,8.15
2018-12-16T00:28:15.931Z,8.13
2018-12-16T00:30:44.804Z,7.97
2018-12-16T00:33:14.119Z,7.96
2018-12-16T00:35:43.009Z,8.00
2018-12-16T00:38:11.884Z,7.94
2018-12-16T00:40:40.815Z,7.85
2018-12-16T00:43:09.635Z,7.74
2018-12-16T00:45:38.517Z,7.88
2018-12-16T00:48:07.366Z,7.81
2018-12-16T00:50:36.227Z,7.84
2018-12-16T00:53:05.392Z,7.93
2018-12-16T00:55:34.580Z,8.07
2018-12-16T00:58:03.884Z,8.14
2018-12-16T01:00:33.198Z,8.11
2018-12-16T01:03:02.817Z,8.03
2018-12-16T01:05:32.098Z,7.94
2018-12-16T01:08:00.989Z,7.85
2018-12-16T01:10:30.282Z,7.74
2018-12-16T01:12:59.885Z,7.77
2018-12-16T01:15:28.758Z,7.62
2018-12-16T01:17:57.627Z,7.69
2018-12-16T01:20:26.926Z,7.84
2018-12-16T01:22:56.118Z,8.08
2018-12-16T01:25:25.270Z,8.27
2018-12-16T01:27:54.885Z,8.42
2018-12-16T01:30:24.130Z,8.39
2018-12-16T01:32:53.014Z,8.41
2018-12-16T01:35:22.121Z,8.40
2018-12-16T01:37:50.992Z,8.43
2018-12-16T01:40:19.928Z,8.49
2018-12-16T01:42:48.834Z,8.40
2018-12-16T01:45:17.782Z,8.42
2018-12-16T01:47:46.671Z,8.43
2018-12-16T01:50:15.555Z,8.45
2018-12-16T01:52:49.946Z,8.51
2018-12-16T01:55:15.326Z,8.42
2018-12-16T01:57:44.246Z,8.22
2018-12-16T02:00:13.515Z,8.32
2018-12-16T02:02:42.639Z,8.45
2018-12-16T02:05:11.965Z,8.42
2018-12-16T02:07:42.153Z,8.47
2018-12-16T02:10:11.497Z,8.51
2018-12-16T02:12:40.498Z,8.39
2018-12-16T02:15:09.822Z,8.38
2018-12-16T02:17:38.848Z,8.41
2018-12-16T02:20:08.196Z,8.42
2018-12-16T02:22:37.096Z,8.37
2018-12-16T02:25:07.718Z,8.27
2018-12-16T02:27:36.649Z,8.23
2018-12-16T02:30:08.213Z,8.26
2018-12-16T02:32:37.165Z,8.23
2018-12-16T02:35:13.524Z,8.08
2018-12-16T02:37:42.417Z,8.13
2018-12-16T02:40:11.299Z,8.11
2018-12-16T02:42:40.167Z,8.04
2018-12-16T02:45:09.751Z,8.17
2018-12-16T02:47:38.668Z,8.05
2018-12-16T02:50:08.339Z,8.13
2018-12-16T02:52:37.210Z,8.19
2018-12-16T02:55:06.706Z,8.24
2018-12-16T02:57:36.008Z,8.24
2018-12-16T03:00:05.707Z,8.11
2018-12-16T03:02:35.215Z,8.09
2018-12-16T03:05:04.509Z,8.02
2018-12-16T03:07:33.413Z,7.81
2018-12-16T03:10:02.596Z,7.80
2018-12-16T03:12:31.592Z,8.02
2018-12-16T03:15:00.516Z,8.09
2018-12-16T03:17:29.584Z,8.01
2018-12-16T03:19:58.436Z,8.13
2018-12-16T03:22:27.339Z,8.24
2018-12-16T03:24:56.201Z,8.23
2018-12-16T03:27:25.051Z,8.08
2018-12-16T03:29:54.355Z,8.02
2018-12-16T03:32:23.127Z,8.13
2018-12-16T03:34:52.244Z,8.18
2018-12-16T03:37:21.153Z,8.03
2018-12-16T03:39:49.999Z,8.01
2018-12-16T03:42:18.882Z,8.08
2018-12-16T03:44:48.181Z,8.12
2018-12-16T03:47:17.088Z,8.07
2018-12-16T03:49:45.952Z,7.96
2018-12-16T03:52:14.873Z,7.87
2018-12-16T03:54:43.765Z,7.91
2018-12-16T03:57:12.654Z,7.86
2018-12-16T03:59:41.556Z,8.12
2018-12-16T04:02:10.653Z,8.18
2018-12-16T04:04:39.538Z,8.17
2018-12-16T04:07:08.839Z,8.14
2018-12-16T04:09:38.142Z,8.21
2018-12-16T04:12:07.036Z,8.16
2018-12-16T04:14:35.947Z,8.20
2018-12-16T04:17:05.249Z,8.16
2018-12-16T04:19:34.122Z,8.09
2018-12-16T04:22:03.213Z,8.04
2018-12-16T04:24:32.108Z,7.89
2018-12-16T04:27:00.990Z,7.96
2018-12-16T04:29:29.877Z,7.99
2018-12-16T04:31:58.761Z,8.04
2018-12-16T04:34:27.663Z,8.22
2018-12-16T04:36:56.768Z,8.23
2018-12-16T04:39:25.812Z,8.15
2018-12-16T04:41:55.104Z,8.16
2018-12-16T04:44:23.955Z,8.17
2018-12-16T04:46:52.847Z,8.25
2018-12-16T04:49:21.720Z,8.01
2018-12-16T04:51:50.614Z,8.04
2018-12-16T04:54:19.497Z,7.91
2018-12-16T04:56:48.400Z,7.79
2018-12-16T04:59:17.279Z,7.72
2018-12-16T05:01:46.126Z,7.65
2018-12-16T05:04:15.418Z,7.80
2018-12-16T05:06:44.274Z,8.05
2018-12-16T05:09:13.233Z,8.00
2018-12-16T05:11:42.487Z,7.90
2018-12-16T05:14:11.428Z,7.78
2018-12-16T05:16:40.279Z,7.83
2018-12-16T05:19:09.165Z,7.75
2018-12-16T05:21:38.475Z,7.72
2018-12-16T05:24:07.592Z,7.83
2018-12-16T05:26:36.483Z,7.93
2018-12-16T05:29:05.309Z,7.99
2018-12-16T05:31:34.592Z,8.09
2018-12-16T05:34:03.477Z,8.12
2018-12-16T05:36:32.327Z,8.19
2018-12-16T05:39:01.201Z,8.22
2018-12-16T05:41:30.315Z,8.06
2018-12-16T05:43:59.176Z,7.87
2018-12-16T05:46:28.043Z,7.88
2018-12-16T05:48:57.287Z,7.88
2018-12-16T05:51:26.155Z,7.76
2018-12-16T05:53:55.020Z,7.78
2018-12-16T05:56:23.912Z,7.75
2018-12-16T05:58:52.784Z,7.85
2018-12-16T06:01:21.715Z,7.77
2018-12-16T06:03:50.586Z,7.94
2018-12-16T06:06:19.421Z,7.86
2018-12-16T06:08:48.261Z,7.74
2018-12-16T06:11:17.092Z,7.67
2018-12-16T06:13:45.957Z,7.72
2018-12-16T06:16:14.959Z,7.56
2018-12-16T06:18:43.841Z,7.60
2018-12-16T06:21:12.756Z,7.75
2018-12-16T06:23:41.612Z,7.75
2018-12-16T06:26:10.493Z,7.69
2018-12-16T06:28:39.354Z,7.81
2018-12-16T06:31:08.264Z,7.84
2018-12-16T06:33:37.227Z,7.76
2018-12-16T06:36:06.402Z,7.84
2018-12-16T06:38:35.292Z,7.63
2018-12-16T06:41:04.500Z,7.70
2018-12-16T06:43:33.373Z,7.59
2018-12-16T06:46:02.271Z,7.66
2018-12-16T06:48:31.162Z,7.89
2018-12-16T06:51:00.028Z,7.97
2018-12-16T06:53:28.910Z,7.85
2018-12-16T06:55:57.823Z,7.93
2018-12-16T06:58:27.625Z,7.74
2018-12-16T07:00:56.515Z,7.66
2018-12-16T07:03:25.404Z,7.64
2018-12-16T07:05:54.292Z,7.70
2018-12-16T07:08:23.160Z,7.76
2018-12-16T07:10:52.036Z,7.95
2018-12-16T07:13:21.129Z,8.06
2018-12-16T07:15:49.997Z,7.91
2018-12-16T07:18:19.119Z,7.92
2018-12-16T07:20:48.003Z,7.76
2018-12-16T07:23:16.885Z,7.87
2018-12-16T07:25:46.026Z,7.76
2018-12-16T07:28:16.568Z,7.70
2018-12-16T07:30:46.257Z,7.74
2018-12-16T07:33:17.235Z,7.85
2018-12-16T07:35:46.522Z,7.76
2018-12-16T07:38:15.393Z,7.77
2018-12-16T07:40:44.470Z,7.75
2018-12-16T07:43:13.636Z,7.72
2018-12-16T07:45:43.139Z,7.64
2018-12-16T07:48:12.026Z,7.67
2018-12-16T07:50:41.228Z,7.57
2018-12-16T07:53:10.121Z,7.68
2018-12-16T07:55:39.444Z,7.76
2018-12-16T07:58:08.904Z,7.79
2018-12-16T08:00:38.308Z,7.72
2018-12-16T08:03:07.472Z,7.89
2018-12-16T08:05:36.373Z,8.01
2018-12-16T08:08:05.260Z,8.10
2018-12-16T08:10:34.211Z,8.18
2018-12-16T08:13:03.203Z,8.10
2018-12-16T08:15:32.089Z,7.97
2018-12-16T08:18:00.993Z,7.94
2018-12-16T08:20:30.164Z,8.14
2018-12-16T08:22:59.864Z,7.85
2018-12-16T08:25:28.766Z,7.90
2018-12-16T08:27:58.430Z,7.90
2018-12-16T08:30:27.604Z,8.11
2018-12-16T08:32:56.440Z,8.11
2018-12-16T08:35:25.323Z,8.07
2018-12-16T08:37:54.217Z,8.21
2018-12-16T08:40:23.130Z,8.14
2018-12-16T08:42:52.083Z,8.26
2018-12-16T08:45:21.069Z,8.28
2018-12-16T08:47:50.039Z,8.19
2018-12-16T08:50:18.968Z,8.17
2018-12-16T08:52:47.916Z,8.14
2018-12-16T08:55:16.786Z,8.38
2018-12-16T08:57:45.707Z,8.26
2018-12-16T09:00:14.588Z,8.17
2018-12-16T09:02:43.494Z,8.25
2018-12-16T09:05:12.350Z,8.18
2018-12-16T09:07:41.283Z,8.26
2018-12-16T09:10:11.157Z,8.18
2018-12-16T09:12:40.227Z,8.09
2018-12-16T09:15:09.487Z,8.27
2018-12-16T09:17:38.395Z,8.27
2018-12-16T09:20:07.677Z,8.40
2018-12-16T09:22:36.568Z,8.28
2018-12-16T09:25:05.922Z,8.08
2018-12-16T09:27:34.831Z,8.19
2018-12-16T09:30:04.205Z,8.19
2018-12-16T09:32:33.043Z,8.12
2018-12-16T09:35:01.939Z,8.14
2018-12-16T09:37:30.819Z,8.20
2018-12-16T09:39:59.706Z,8.20
2018-12-16T09:42:28.555Z,8.12
2018-12-16T09:44:57.735Z,8.03
2018-12-16T09:47:26.956Z,8.12
2018-12-16T09:49:55.935Z,8.09
2018-12-16T09:52:24.826Z,8.04
2018-12-16T09:54:53.758Z,8.06
2018-12-16T09:57:22.664Z,7.98
2018-12-16T09:59:51.548Z,7.89
2018-12-16T10:02:20.656Z,7.98
2018-12-16T10:04:49.537Z,7.97
2018-12-16T10:07:18.473Z,7.85
2018-12-16T10:09:47.331Z,7.81
2018-12-16T10:12:16.234Z,7.90
2018-12-16T10:14:45.113Z,7.86
2018-12-16T10:17:14.284Z,7.87
2018-12-16T10:19:43.221Z,7.86
2018-12-16T10:22:12.089Z,7.91
2018-12-16T10:24:41.140Z,7.85
2018-12-16T10:27:10.184Z,7.82
2018-12-16T10:29:39.359Z,8.06
2018-12-16T10:32:27.001Z,7.98
2018-12-16T10:34:55.900Z,8.22
2018-12-16T10:37:24.895Z,8.30
2018-12-16T10:39:53.866Z,8.24
2018-12-16T10:42:23.087Z,8.33
2018-12-16T10:44:52.391Z,8.12
2018-12-16T10:47:21.469Z,8.03
2018-12-16T10:49:50.828Z,8.30
2018-12-16T10:52:19.877Z,8.30
2018-12-16T10:54:48.864Z,8.33
2018-12-16T10:57:17.869Z,8.23
2018-12-16T10:59:47.123Z,8.13
2018-12-16T11:02:16.157Z,8.34
2018-12-16T11:04:45.161Z,8.31
2018-12-16T11:07:14.030Z,8.36
2018-12-16T11:09:43.020Z,8.27
2018-12-16T11:12:12.392Z,8.19
2018-12-16T11:14:42.132Z,8.36
2018-12-16T11:17:11.187Z,8.31
2018-12-16T11:19:40.156Z,8.40
2018-12-16T11:22:09.113Z,8.45
2018-12-16T11:24:38.726Z,8.36
2018-12-16T11:27:07.671Z,8.38
2018-12-16T11:29:36.531Z,8.24
2018-12-16T11:32:05.759Z,8.17
2018-12-16T11:34:35.079Z,8.14
2018-12-16T11:37:04.325Z,8.26
2018-12-16T11:39:33.219Z,8.15
2018-12-16T11:42:02.088Z,8.10
2018-12-16T11:44:31.029Z,8.21
2018-12-16T11:46:59.944Z,8.45
2018-12-16T11:49:29.120Z,8.29
2018-12-16T11:51:58.376Z,8.15
2018-12-16T11:54:27.257Z,8.13
2018-12-16T11:56:56.142Z,8.30
2018-12-16T11:59:25.022Z,8.36
2018-12-16T12:01:53.887Z,8.18
2018-12-16T12:04:23.190Z,8.32
2018-12-16T12:06:52.129Z,8.40
2018-12-16T12:09:21.252Z,8.31
2018-12-16T12:11:50.119Z,8.21
2018-12-16T12:14:19.219Z,8.36
2018-12-16T12:16:48.352Z,8.26
2018-12-16T12:19:17.211Z,8.21
2018-12-16T12:21:46.094Z,8.40
2018-12-16T12:24:14.974Z,8.40
2018-12-16T12:26:44.486Z,8.34
2018-12-16T12:29:13.387Z,8.27
2018-12-16T12:31:42.544Z,8.43
2018-12-16T12:34:11.422Z,8.31
2018-12-16T12:36:41.049Z,8.24
2018-12-16T12:39:10.063Z,8.34
2018-12-16T12:41:39.771Z,8.36
2018-12-16T12:44:08.634Z,8.30
2018-12-16T12:46:37.603Z,8.23
2018-12-16T12:49:06.665Z,8.28
2018-12-16T12:51:36.520Z,8.38
2018-12-16T12:54:06.642Z,8.28
2018-12-16T12:56:35.904Z,8.35
2018-12-16T12:59:05.943Z,8.25
2018-12-16T13:01:34.813Z,8.32
2018-12-16T13:04:03.696Z,8.34
2018-12-16T13:06:32.678Z,8.47
2018-12-16T13:09:02.039Z,8.34
2018-12-16T13:11:30.923Z,8.32
2018-12-16T13:13:59.808Z,8.50
2018-12-16T13:16:29.073Z,8.46
2018-12-16T13:18:58.305Z,8.55
2018-12-16T13:21:27.198Z,8.47
2018-12-16T13:23:56.172Z,8.39
2018-12-16T13:26:25.444Z,8.31
2018-12-16T13:28:54.757Z,8.34
2018-12-16T13:31:24.838Z,8.37
2018-12-16T13:33:53.961Z,8.35
2018-12-16T13:36:22.846Z,8.36
2018-12-16T13:38:51.756Z,8.41
2018-12-16T13:41:20.615Z,8.33
2018-12-16T13:43:49.874Z,8.31
2018-12-16T13:46:19.007Z,8.36
2018-12-16T13:48:48.229Z,8.36
2018-12-16T13:51:17.113Z,8.36
2018-12-16T13:53:46.158Z,8.36
2018-12-16T13:56:15.441Z,8.32
2018-12-16T13:58:44.312Z,8.25
2018-12-16T14:01:13.204Z,8.37
2018-12-16T14:03:42.163Z,8.39
2018-12-16T14:06:11.024Z,8.44
2018-12-16T14:08:39.936Z,8.35
2018-12-16T14:11:08.738Z,8.27
2018-12-16T14:13:38.091Z,8.33
2018-12-16T14:16:06.981Z,8.35
2018-12-16T14:18:35.855Z,8.43
2018-12-16T14:21:04.791Z,8.34
2018-12-16T14:23:33.646Z,8.28
2018-12-16T14:26:02.540Z,8.30
2018-12-16T14:28:31.485Z,8.26
2018-12-16T14:31:01.782Z,8.33
2018-12-16T14:33:30.871Z,8.25
2018-12-16T14:35:59.836Z,8.21
2018-12-16T14:38:29.283Z,8.23
2018-12-16T14:40:59.527Z,8.22
2018-12-16T14:43:28.729Z,8.32
2018-12-16T14:45:57.600Z,8.19
2018-12-16T14:48:26.468Z,8.23
2018-12-16T14:50:55.345Z,8.21
2018-12-16T14:53:24.632Z,8.29
2018-12-16T14:55:55.356Z,8.23
2018-12-16T14:58:24.386Z,8.19
2018-12-16T15:00:53.273Z,8.19
2018-12-16T15:03:22.188Z,8.28
2018-12-16T15:05:51.076Z,8.39
2018-12-16T15:08:21.558Z,8.27
2018-12-16T15:10:50.497Z,8.34
2018-12-16T15:13:19.336Z,8.22
2018-12-16T15:15:48.206Z,8.31
2018-12-16T15:18:17.123Z,8.22
2018-12-16T15:20:45.968Z,8.23
2018-12-16T15:23:14.856Z,8.17
2018-12-16T15:25:43.694Z,8.23
2018-12-16T15:28:12.592Z,8.22
2018-12-16T15:30:41.596Z,8.17
2018-12-16T15:33:10.492Z,8.30
2018-12-16T15:35:39.367Z,8.33
2018-12-16T15:38:08.252Z,8.24
2018-12-16T15:40:37.103Z,8.25
2018-12-16T15:43:06.304Z,8.27
2018-12-16T15:45:35.239Z,8.33
2018-12-16T15:48:04.141Z,8.27
2018-12-16T15:50:33.024Z,8.30
2018-12-16T15:53:01.919Z,8.29
2018-12-16T15:55:30.817Z,8.31
2018-12-16T15:57:59.780Z,8.30
2018-12-16T16:00:28.672Z,8.27
2018-12-16T16:02:57.583Z,8.18
2018-12-16T16:05:26.496Z,8.26
2018-12-16T16:07:55.382Z,8.27
2018-12-16T16:10:24.264Z,8.23
2018-12-16T16:12:53.553Z,8.32
2018-12-16T16:15:22.438Z,8.23
2018-12-16T16:17:51.348Z,8.29
2018-12-16T16:20:20.235Z,8.40
2018-12-16T16:22:49.252Z,8.38
2018-12-16T16:25:18.215Z,8.30
2018-12-16T16:27:47.304Z,8.31
2018-12-16T16:30:16.755Z,8.30
2018-12-16T16:32:45.614Z,8.31
2018-12-16T16:35:14.573Z,8.28
2018-12-16T16:37:44.155Z,8.27
2018-12-16T16:40:13.088Z,8.35
2018-12-16T16:42:43.153Z,8.27
2018-12-16T16:45:40.326Z,8.27
2018-12-16T16:48:09.360Z,8.35
2018-12-16T16:50:38.280Z,8.35
2018-12-16T16:53:07.200Z,8.33
2018-12-16T16:55:36.084Z,8.38
2018-12-16T16:58:05.014Z,8.32
2018-12-16T17:00:33.924Z,8.33
2018-12-16T17:03:02.805Z,8.37
2018-12-16T17:05:31.722Z,8.41
2018-12-16T17:08:00.625Z,8.33
2018-12-16T17:10:29.508Z,8.35
2018-12-16T17:12:58.838Z,8.41
2018-12-16T17:15:28.192Z,8.42
2018-12-16T17:17:57.065Z,8.37
2018-12-16T17:20:25.959Z,8.28
2018-12-16T17:22:54.847Z,8.28
2018-12-16T17:25:23.740Z,8.38
2018-12-16T17:27:52.633Z,8.36
2018-12-16T17:30:21.597Z,8.37
2018-12-16T17:32:50.470Z,8.36
2018-12-16T17:35:19.770Z,8.40
2018-12-16T17:37:48.877Z,8.41
2018-12-16T17:40:17.815Z,8.43
2018-12-16T17:42:46.753Z,8.42
2018-12-16T17:45:15.612Z,8.41
2018-12-16T17:47:44.548Z,8.37
2018-12-16T17:50:13.442Z,8.39
2018-12-16T17:52:42.666Z,8.39
2018-12-16T17:55:11.882Z,8.34
2018-12-16T17:57:40.818Z,8.40
2018-12-16T18:00:11.263Z,8.43
2018-12-16T18:02:40.174Z,8.42
2018-12-16T18:05:09.083Z,8.38
2018-12-16T18:07:37.969Z,8.36
2018-12-16T18:10:07.473Z,8.37
2018-12-16T18:12:36.368Z,8.39
2018-12-16T18:15:07.478Z,8.42
2018-12-16T18:17:36.572Z,8.40
2018-12-16T18:20:07.561Z,8.42
2018-12-16T18:22:36.446Z,8.42
2018-12-16T18:25:06.057Z,8.38
2018-12-16T18:27:35.051Z,8.38
2018-12-16T18:30:05.152Z,8.30
2018-12-16T18:32:34.727Z,8.20
2018-12-16T18:35:04.399Z,8.35
2018-12-16T18:37:33.372Z,8.36
2018-12-16T18:40:02.360Z,8.47
2018-12-16T18:42:31.280Z,8.37
2018-12-16T18:45:00.246Z,8.35
2018-12-16T18:47:29.197Z,8.42
2018-12-16T18:49:58.596Z,8.46
2018-12-16T18:52:27.529Z,8.45
2018-12-16T18:54:56.543Z,8.61
2018-12-16T18:57:25.412Z,8.47
2018-12-16T18:59:54.418Z,8.45
2018-12-16T19:02:23.521Z,8.35
2018-12-16T19:04:52.519Z,8.43
2018-12-16T19:07:21.420Z,8.42
2018-12-16T19:09:50.800Z,8.51
2018-12-16T19:12:19.724Z,8.43
2018-12-16T19:14:49.292Z,8.43
2018-12-16T19:17:18.237Z,8.39
2018-12-16T19:19:47.552Z,8.44
2018-12-16T19:22:16.466Z,8.53
2018-12-16T19:24:45.334Z,8.39
2018-12-16T19:27:14.253Z,8.51
2018-12-16T19:29:43.145Z,8.45
2018-12-16T19:32:12.224Z,8.39
2018-12-16T19:34:41.145Z,8.47
2018-12-16T19:37:10.019Z,8.47
2018-12-16T19:39:38.893Z,8.41
2018-12-16T19:42:07.755Z,8.42
2018-12-16T19:44:36.614Z,8.49
2018-12-16T19:47:05.860Z,8.39
2018-12-16T19:49:34.758Z,8.52
2018-12-16T19:52:03.592Z,8.40
2018-12-16T19:54:43.748Z,8.48
2018-12-16T19:57:13.112Z,8.48
2018-12-16T19:59:42.060Z,8.45
2018-12-16T20:02:10.871Z,8.42
2018-12-16T20:04:44.792Z,8.45
2018-12-16T20:07:13.616Z,8.52
2018-12-16T20:09:42.453Z,8.51
2018-12-16T20:12:11.299Z,8.55
2018-12-16T20:14:40.297Z,8.55
2018-12-16T20:17:09.200Z,8.59
2018-12-16T20:19:38.176Z,8.56
2018-12-16T20:22:52.780Z,8.51
2018-12-16T20:25:21.696Z,8.46
2018-12-16T20:27:50.622Z,8.53
2018-12-16T20:30:19.597Z,8.48
2018-12-16T20:36:09.577Z,8.45
2018-12-16T20:39:09.569Z,8.47
2018-12-16T20:41:38.584Z,8.46
2018-12-16T20:44:07.474Z,8.49
2018-12-16T20:46:49.221Z,8.47
2018-12-16T20:49:18.217Z,8.44
2018-12-16T20:51:47.448Z,8.53
2018-12-16T20:54:17.002Z,8.46
2018-12-16T20:56:45.876Z,8.59
2018-12-16T20:59:14.818Z,8.52
2018-12-16T21:01:43.714Z,8.50
2018-12-16T21:04:13.010Z,8.50
2018-12-16T21:06:41.896Z,8.56
2018-12-16T21:09:10.915Z,8.58
2018-12-16T21:11:45.028Z,8.47
2018-12-16T21:14:19.145Z,8.54
2018-12-16T21:18:55.408Z,8.52
2018-12-16T21:21:24.302Z,8.59
2018-12-16T21:23:53.537Z,8.54
2018-12-16T21:26:23.823Z,8.56
2018-12-16T21:28:53.761Z,8.60
2018-12-16T21:31:30.400Z,8.54
2018-12-16T21:34:00.630Z,8.46
2018-12-16T21:36:29.499Z,8.59
2018-12-16T21:38:58.429Z,8.61
2018-12-16T21:41:40.904Z,8.55
2018-12-16T21:44:09.886Z,8.51
2018-12-16T21:46:44.637Z,8.53
2018-12-16T21:49:13.484Z,8.52
2018-12-16T21:51:42.673Z,8.53
2018-12-16T21:54:16.170Z,8.54
2018-12-16T21:56:45.750Z,8.58
2018-12-16T21:59:14.620Z,8.52
2018-12-16T22:01:43.485Z,8.53
2018-12-16T22:04:12.483Z,8.49
2018-12-16T22:06:41.560Z,8.54
2018-12-16T22:09:11.824Z,8.56
2018-12-16T22:11:41.023Z,8.67
2018-12-16T22:14:09.896Z,8.50
2018-12-16T22:16:40.028Z,8.59
2018-12-16T22:19:08.879Z,8.51
2018-12-16T22:21:37.833Z,8.62
2018-12-16T22:24:08.118Z,8.60
2018-12-16T22:26:37.247Z,8.60
2018-12-16T22:29:08.377Z,8.63
2018-12-16T22:31:37.653Z,8.62
2018-12-16T22:34:06.545Z,8.60
2018-12-16T22:36:35.619Z,8.63
2018-12-16T22:39:06.830Z,8.65
2018-12-16T22:41:36.101Z,8.62
2018-12-16T22:44:05.956Z,8.59
2018-12-16T22:46:35.201Z,8.59
2018-12-16T22:49:04.453Z,8.65
2018-12-16T22:51:33.683Z,8.68
2018-12-16T22:54:02.549Z,8.64
2018-12-16T22:56:31.354Z,8.69
2018-12-16T22:59:00.269Z,8.65
2018-12-16T23:01:29.104Z,8.64
2018-12-16T23:03:57.932Z,8.60
2018-12-16T23:06:26.772Z,8.70
2018-12-16T23:08:55.630Z,8.64
2018-12-16T23:11:24.434Z,8.62
2018-12-16T23:13:53.243Z,8.65
2018-12-16T23:16:22.491Z,8.73
2018-12-16T23:18:51.708Z,8.62
2018-12-16T23:21:20.557Z,8.62
2018-12-16T23:23:49.643Z,8.66
2018-12-16T23:26:18.480Z,8.70
2018-12-16T23:28:47.299Z,8.67
2018-12-16T23:31:16.266Z,8.67
2018-12-16T23:33:45.164Z,8.69
2018-12-16T23:36:14.258Z,8.69
2018-12-16T23:38:43.079Z,8.70
2018-12-16T23:41:12.324Z,8.71
2018-12-16T23:43:41.362Z,8.64
2018-12-16T23:46:10.204Z,8.72
2018-12-16T23:48:39.021Z,8.68
2018-12-16T23:51:07.854Z,8.71
2018-12-16T23:53:36.703Z,8.71
2018-12-16T23:56:05.890Z,8.72
2018-12-16T23:58:34.707Z,8.71
